Time;durP1;ratioP1;P1;durP2;ratioP2;P2;SDS_P1;SDS_P2;PMS_P1;PMS_P2;Temp;Humidity;BMP_temperature;BMP_pressure;BME280_temperature;BME280_humidity;BME280_pressure;Samples;Min_cycle;Max_cycle;Signal;HPM_P1;HPM_P2
2020/12/20 00:02:18;;;;;;;9.77;5.20;;;9.30;99.90;;;;;;5011008;28;20030;-79
2020/12/20 00:04:44;;;;;;;14.27;6.40;;;9.30;99.90;;;;;;5007342;28;20022;-79
2020/12/20 00:07:09;;;;;;;11.32;4.53;;;9.40;99.90;;;;;;5011044;28;20035;-79
2020/12/20 00:09:35;;;;;;;7.20;4.40;;;9.40;99.90;;;;;;5009932;28;20043;-79
2020/12/20 00:12:03;;;;;;;14.10;5.18;;;9.40;99.90;;;;;;5008180;28;20030;-84
2020/12/20 00:14:31;;;;;;;12.20;5.47;;;9.40;99.90;;;;;;5017300;28;20030;-79
2020/12/20 00:16:59;;;;;;;13.70;4.80;;;9.40;99.90;;;;;;5016889;28;20050;-80
2020/12/20 00:19:26;;;;;;;13.30;3.33;;;9.50;99.90;;;;;;5014635;28;20073;-79
2020/12/20 00:21:53;;;;;;;10.57;4.25;;;9.50;99.90;;;;;;5013757;28;20034;-80
2020/12/20 00:24:19;;;;;;;6.30;3.63;;;9.50;99.90;;;;;;4989969;28;20034;-81
2020/12/20 00:26:45;;;;;;;17.23;5.30;;;9.50;99.90;;;;;;4990533;28;20053;-79
2020/12/20 00:29:10;;;;;;;16.00;3.90;;;9.60;99.90;;;;;;4995796;28;20027;-79
2020/12/20 00:31:37;;;;;;;10.05;4.50;;;9.60;99.90;;;;;;4996346;28;20389;-79
2020/12/20 00:34:04;;;;;;;14.98;4.05;;;9.60;99.90;;;;;;4997508;28;20029;-79
2020/12/20 00:36:29;;;;;;;8.38;4.30;;;9.60;99.90;;;;;;4996422;28;20022;-80
2020/12/20 00:38:55;;;;;;;7.50;4.10;;;9.60;99.90;;;;;;4986360;28;20687;-80
2020/12/20 00:41:20;;;;;;;10.88;5.03;;;9.60;99.90;;;;;;4978749;28;20022;-79
2020/12/20 00:43:46;;;;;;;16.08;4.75;;;9.60;99.90;;;;;;4992063;28;20046;-80
2020/12/20 00:46:12;;;;;;;9.68;4.28;;;9.70;99.90;;;;;;4993791;28;20018;-80
2020/12/20 00:48:37;;;;;;;10.73;3.92;;;9.80;99.90;;;;;;4994527;28;20034;-79
2020/12/20 00:51:05;;;;;;;11.13;3.92;;;9.80;99.90;;;;;;4987764;28;20039;-79
2020/12/20 00:53:32;;;;;;;7.35;3.80;;;9.80;99.90;;;;;;4990117;28;20031;-80
2020/12/20 00:55:57;;;;;;;9.10;4.03;;;9.80;99.90;;;;;;4990836;28;20031;-80
2020/12/20 00:58:23;;;;;;;17.92;4.57;;;9.80;99.90;;;;;;4993202;28;20380;-81
2020/12/20 01:00:49;;;;;;;14.63;4.30;;;9.80;99.90;;;;;;4989631;28;20038;-80
2020/12/20 01:03:16;;;;;;;8.60;4.15;;;9.70;99.90;;;;;;4991683;28;20445;-79
2020/12/20 01:05:42;;;;;;;5.70;2.85;;;9.70;99.90;;;;;;4991378;28;20037;-80
2020/12/20 01:08:09;;;;;;;14.73;5.53;;;9.70;99.90;;;;;;4990218;28;20023;-80
2020/12/20 01:10:38;;;;;;;12.70;4.95;;;9.70;99.90;;;;;;4990793;28;20042;-80
2020/12/20 01:13:04;;;;;;;13.32;4.57;;;9.70;99.90;;;;;;4993945;28;20029;-79
2020/12/20 01:15:30;;;;;;;19.33;4.40;;;9.70;99.90;;;;;;4988209;28;20042;-79
2020/12/20 01:17:56;;;;;;;10.30;4.50;;;9.60;99.90;;;;;;4974394;28;20027;-80
2020/12/20 01:20:23;;;;;;;9.40;3.67;;;9.70;99.90;;;;;;4978507;28;20022;-79
2020/12/20 01:22:49;;;;;;;10.23;4.57;;;9.70;99.90;;;;;;4993164;28;20118;-79
2020/12/20 01:25:15;;;;;;;13.60;3.97;;;9.70;99.90;;;;;;4985622;28;20053;-79
2020/12/20 01:27:41;;;;;;;12.30;3.90;;;9.80;99.90;;;;;;4994622;28;20030;-80
2020/12/20 01:30:07;;;;;;;13.75;4.82;;;9.80;99.90;;;;;;4991918;28;20620;-81
2020/12/20 01:32:32;;;;;;;11.38;4.10;;;9.80;99.90;;;;;;4989401;28;20442;-80
2020/12/20 01:34:58;;;;;;;13.00;4.57;;;9.70;99.90;;;;;;4992499;28;20026;-80
2020/12/20 01:37:23;;;;;;;10.85;3.88;;;9.70;99.90;;;;;;4992384;28;20089;-80
2020/12/20 01:39:49;;;;;;;12.30;3.95;;;9.70;99.90;;;;;;4992510;28;20022;-80
2020/12/20 01:42:15;;;;;;;14.40;3.72;;;9.70;99.90;;;;;;4983976;28;20169;-79
2020/12/20 01:44:41;;;;;;;12.60;4.90;;;9.80;99.90;;;;;;4989391;28;20090;-80
2020/12/20 01:47:07;;;;;;;13.52;5.05;;;9.80;99.90;;;;;;4991205;28;20534;-80
2020/12/20 01:49:33;;;;;;;11.93;3.63;;;9.80;99.90;;;;;;4992445;28;20166;-80
2020/12/20 01:52:00;;;;;;;15.95;4.57;;;9.80;99.90;;;;;;4983403;28;20114;-80
2020/12/20 01:54:27;;;;;;;6.47;3.92;;;9.70;99.90;;;;;;4992319;28;20034;-80
2020/12/20 01:56:52;;;;;;;11.38;5.07;;;9.70;99.90;;;;;;4987526;28;20034;-80
2020/12/20 01:59:18;;;;;;;9.85;3.42;;;9.70;99.90;;;;;;4996259;28;20146;-80
2020/12/20 02:01:44;;;;;;;12.05;4.20;;;9.70;99.90;;;;;;4996342;28;20033;-80
2020/12/20 02:04:10;;;;;;;14.43;5.10;;;9.70;99.90;;;;;;4988625;28;20491;-80
2020/12/20 02:06:38;;;;;;;9.63;3.95;;;9.70;99.90;;;;;;4993729;28;20398;-79
2020/12/20 02:09:04;;;;;;;13.77;4.32;;;9.70;99.90;;;;;;4996121;28;20042;-80
2020/12/20 02:11:30;;;;;;;7.13;3.85;;;9.70;99.90;;;;;;4996768;28;20038;-80
2020/12/20 02:13:55;;;;;;;9.25;3.10;;;9.70;99.90;;;;;;4989579;28;20448;-80
2020/12/20 02:16:22;;;;;;;12.63;3.80;;;9.70;99.90;;;;;;4991534;28;20046;-80
2020/12/20 02:18:49;;;;;;;6.15;3.33;;;9.70;99.90;;;;;;4995746;28;20106;-80
2020/12/20 02:21:19;;;;;;;10.02;4.65;;;9.80;99.90;;;;;;4989977;28;20492;-80
2020/12/20 02:23:48;;;;;;;17.52;3.85;;;9.80;99.90;;;;;;4979441;28;20038;-80
2020/12/20 02:26:20;;;;;;;8.45;3.90;;;9.70;99.90;;;;;;4994104;28;20241;-80
2020/12/20 02:28:53;;;;;;;12.95;4.55;;;9.70;99.90;;;;;;4994806;28;20058;-80
2020/12/20 02:31:21;;;;;;;8.60;4.38;;;9.70;99.90;;;;;;4997209;28;20514;-80
2020/12/20 02:33:47;;;;;;;14.45;4.05;;;9.60;99.90;;;;;;5010221;28;20018;-81
2020/12/20 02:36:13;;;;;;;9.27;3.38;;;9.70;99.90;;;;;;5003309;28;20022;-80
2020/12/20 02:38:40;;;;;;;10.27;4.07;;;9.70;99.90;;;;;;5013544;28;20034;-80
2020/12/20 02:41:06;;;;;;;8.85;3.35;;;9.60;99.90;;;;;;5006464;28;20031;-80
2020/12/20 02:43:31;;;;;;;6.75;3.63;;;9.60;99.90;;;;;;5011288;28;20099;-81
2020/12/20 02:45:57;;;;;;;13.82;3.67;;;9.60;99.90;;;;;;5001951;28;20081;-79
2020/12/20 02:48:23;;;;;;;16.25;4.55;;;9.50;99.90;;;;;;4992732;28;20027;-80
2020/12/20 02:50:48;;;;;;;11.65;4.50;;;9.60;99.90;;;;;;5001292;28;20335;-80
2020/12/20 02:53:14;;;;;;;9.88;3.58;;;9.50;99.90;;;;;;5000486;28;20027;-80
2020/12/20 02:55:40;;;;;;;10.73;3.78;;;9.50;99.90;;;;;;4999600;28;20034;-81
2020/12/20 02:58:06;;;;;;;4.43;3.40;;;9.50;99.90;;;;;;4986120;28;20023;-78
2020/12/20 03:00:34;;;;;;;10.07;3.67;;;9.50;99.90;;;;;;4984563;28;20022;-78
2020/12/20 03:02:59;;;;;;;18.45;4.47;;;9.50;99.90;;;;;;4988040;28;20027;-79
2020/12/20 03:05:25;;;;;;;6.75;4.53;;;9.50;99.90;;;;;;4992637;28;20056;-78
2020/12/20 03:07:51;;;;;;;8.15;3.92;;;9.50;99.90;;;;;;4996767;28;20060;-77
2020/12/20 03:10:19;;;;;;;8.63;4.10;;;9.50;99.90;;;;;;4994583;28;20034;-77
2020/12/20 03:12:45;;;;;;;11.35;3.90;;;9.50;99.90;;;;;;4997337;28;20423;-78
2020/12/20 03:15:11;;;;;;;12.80;3.33;;;9.40;99.90;;;;;;4993398;28;20044;-78
2020/12/20 03:17:37;;;;;;;6.68;3.80;;;9.40;99.90;;;;;;4989049;28;20066;-78
2020/12/20 03:20:04;;;;;;;9.27;3.95;;;9.40;99.90;;;;;;4985792;28;20049;-78
2020/12/20 03:22:30;;;;;;;10.55;4.70;;;9.30;99.90;;;;;;4991143;28;20030;-78
2020/12/20 03:24:55;;;;;;;8.10;3.38;;;9.30;99.90;;;;;;4987621;28;20232;-79
2020/12/20 03:27:21;;;;;;;13.25;3.47;;;9.30;99.90;;;;;;4983353;28;20041;-78
2020/12/20 03:29:46;;;;;;;11.35;4.15;;;9.30;99.90;;;;;;4988627;28;20065;-79
2020/12/20 03:32:12;;;;;;;8.85;3.72;;;9.40;99.90;;;;;;4995436;28;20161;-79
2020/12/20 03:34:38;;;;;;;8.77;3.47;;;9.40;99.90;;;;;;4994273;28;20035;-78
2020/12/20 03:37:03;;;;;;;10.13;3.42;;;9.40;99.90;;;;;;4994494;28;20117;-79
2020/12/20 03:39:29;;;;;;;12.50;4.78;;;9.40;99.90;;;;;;4986278;28;20030;-79
2020/12/20 03:41:55;;;;;;;10.55;4.13;;;9.40;99.90;;;;;;4982533;28;20502;-79
2020/12/20 03:44:21;;;;;;;12.55;4.03;;;9.40;99.90;;;;;;4992351;28;20495;-78
2020/12/20 03:46:47;;;;;;;7.13;3.95;;;9.40;99.90;;;;;;4992972;28;20390;-79
2020/12/20 03:49:12;;;;;;;8.95;3.70;;;9.40;99.90;;;;;;4996062;28;20029;-78
2020/12/20 03:51:38;;;;;;;10.82;3.53;;;9.40;99.90;;;;;;4993306;28;20023;-79
2020/12/20 03:54:03;;;;;;;9.65;3.13;;;9.40;99.90;;;;;;4988698;28;20026;-79
2020/12/20 03:56:30;;;;;;;9.50;3.05;;;9.40;99.90;;;;;;4984833;28;20578;-79
2020/12/20 03:58:56;;;;;;;12.50;4.10;;;9.40;99.90;;;;;;4994046;28;20383;-78
2020/12/20 04:01:21;;;;;;;9.05;3.60;;;9.40;99.90;;;;;;4992498;28;20026;-78
2020/12/20 04:03:47;;;;;;;9.98;3.92;;;9.40;99.90;;;;;;4994252;28;20045;-79
2020/12/20 04:06:13;;;;;;;9.32;3.40;;;9.40;99.90;;;;;;4990689;28;20114;-79
2020/12/20 04:08:38;;;;;;;14.48;3.38;;;9.40;99.90;;;;;;4980936;28;20384;-79
2020/12/20 04:11:04;;;;;;;12.05;3.33;;;9.40;99.90;;;;;;4992770;28;20041;-79
2020/12/20 04:13:32;;;;;;;8.52;3.72;;;9.40;99.90;;;;;;4994051;28;20034;-79
2020/12/20 04:16:06;;;;;;;13.45;3.97;;;9.30;99.90;;;;;;4988231;28;20558;-79
2020/12/20 04:18:31;;;;;;;11.05;3.80;;;9.30;99.90;;;;;;4991659;28;20058;-79
2020/12/20 04:20:57;;;;;;;13.98;3.97;;;9.30;99.90;;;;;;4993151;28;20093;-78
2020/12/20 04:23:22;;;;;;;10.13;4.55;;;9.30;99.90;;;;;;4994369;28;20031;-79
2020/12/20 04:25:48;;;;;;;11.77;3.85;;;9.30;99.90;;;;;;4994504;28;20026;-79
2020/12/20 04:28:14;;;;;;;9.93;3.88;;;9.30;99.90;;;;;;4981400;28;20387;-79
2020/12/20 04:30:39;;;;;;;8.10;3.38;;;9.30;99.90;;;;;;4992083;28;20034;-79
2020/12/20 04:33:05;;;;;;;12.15;3.33;;;9.20;99.90;;;;;;4995516;28;20026;-78
2020/12/20 04:35:30;;;;;;;9.32;3.67;;;9.20;99.90;;;;;;4993760;28;20432;-79
2020/12/20 04:37:56;;;;;;;10.95;4.38;;;9.20;99.90;;;;;;4979846;28;20117;-78
2020/12/20 04:40:26;;;;;;;11.75;4.22;;;9.20;99.90;;;;;;4977168;28;20039;-78
2020/12/20 04:42:59;;;;;;;11.00;3.05;;;9.20;99.90;;;;;;4993462;28;20022;-78
2020/12/20 04:45:25;;;;;;;14.80;4.50;;;9.20;99.90;;;;;;4990130;28;20045;-78
2020/12/20 04:47:52;;;;;;;14.27;4.10;;;9.30;99.90;;;;;;4977518;28;20077;-79
2020/12/20 04:50:18;;;;;;;11.50;4.97;;;9.30;99.90;;;;;;4990681;28;20030;-78
2020/12/20 04:52:46;;;;;;;18.00;4.05;;;9.30;99.90;;;;;;4988744;28;20070;-78
2020/12/20 04:55:14;;;;;;;6.82;3.47;;;9.40;99.90;;;;;;4985495;28;20100;-78
2020/12/20 04:57:39;;;;;;;15.38;4.50;;;9.40;99.90;;;;;;4985588;28;20117;-79
2020/12/20 05:00:06;;;;;;;12.18;3.75;;;9.40;99.90;;;;;;4984235;28;20082;-78
2020/12/20 05:02:33;;;;;;;11.13;4.53;;;9.30;99.90;;;;;;4987796;28;20431;-79
2020/12/20 05:04:59;;;;;;;9.88;2.90;;;9.40;99.90;;;;;;4977190;28;20074;-80
2020/12/20 05:07:25;;;;;;;7.75;3.60;;;9.40;99.90;;;;;;5003468;28;20018;-78
2020/12/20 05:09:50;;;;;;;10.77;3.85;;;9.40;99.90;;;;;;5007086;28;20057;-77
2020/12/20 05:12:24;;;;;;;13.75;3.88;;;9.40;99.90;;;;;;5003838;28;20084;-78
2020/12/20 05:14:50;;;;;;;13.05;4.50;;;9.30;99.90;;;;;;5012615;28;20047;-79
2020/12/20 05:17:17;;;;;;;12.32;4.25;;;9.30;99.90;;;;;;5011293;28;20053;-78
2020/12/20 05:19:43;;;;;;;12.53;4.10;;;9.30;99.90;;;;;;5013477;28;20058;-79
2020/12/20 05:22:19;;;;;;;10.25;4.15;;;9.20;99.90;;;;;;5014102;28;20277;-80
2020/12/20 05:24:52;;;;;;;7.75;3.85;;;9.20;99.90;;;;;;5014222;28;20026;-80
2020/12/20 05:27:20;;;;;;;10.32;3.65;;;9.20;99.90;;;;;;5014421;28;20069;-80
2020/12/20 05:29:49;;;;;;;7.05;3.55;;;9.30;99.90;;;;;;5010631;28;20035;-79
2020/12/20 05:32:29;;;;;;;7.88;3.17;;;9.20;99.90;;;;;;5002394;28;20065;-79
2020/12/20 05:35:06;;;;;;;17.40;4.82;;;9.20;99.90;;;;;;5003119;28;20080;-78
2020/12/20 05:37:34;;;;;;;11.80;3.60;;;9.30;99.90;;;;;;4984828;28;20030;-79
2020/12/20 05:40:03;;;;;;;8.40;3.30;;;9.20;99.90;;;;;;4999587;28;20034;-79
2020/12/20 05:42:29;;;;;;;13.48;3.88;;;9.20;99.90;;;;;;4996507;28;20478;-78
2020/12/20 05:45:12;;;;;;;26.25;3.75;;;9.20;99.90;;;;;;4992727;28;20042;-78
2020/12/20 05:47:39;;;;;;;12.82;3.97;;;9.20;99.90;;;;;;4986482;28;20105;-78
2020/12/20 05:50:11;;;;;;;11.07;3.47;;;9.20;99.90;;;;;;4996878;28;20026;-78
2020/12/20 05:52:37;;;;;;;12.00;4.50;;;9.20;99.90;;;;;;4986152;28;20399;-78
2020/12/20 05:55:13;;;;;;;16.85;4.55;;;9.20;99.90;;;;;;4983440;28;20023;-78
2020/12/20 05:57:40;;;;;;;12.55;3.40;;;9.20;99.90;;;;;;4992261;28;20157;-78
2020/12/20 06:00:07;;;;;;;15.18;3.70;;;9.20;99.90;;;;;;4986633;28;20034;-78
2020/12/20 06:02:32;;;;;;;16.23;4.28;;;9.20;99.90;;;;;;4993707;28;20065;-78
2020/12/20 06:05:01;;;;;;;13.95;4.88;;;9.20;99.90;;;;;;4992774;28;20034;-78
2020/12/20 06:07:27;;;;;;;17.13;3.83;;;9.30;99.90;;;;;;4992037;28;20044;-78
2020/12/20 06:09:58;;;;;;;18.73;4.47;;;9.30;99.90;;;;;;4993645;28;20446;-77
2020/12/20 06:12:29;;;;;;;11.45;4.45;;;9.30;99.90;;;;;;4993371;28;20023;-78
2020/12/20 06:14:57;;;;;;;17.88;4.93;;;9.40;99.90;;;;;;4993942;28;20038;-78
2020/12/20 06:17:27;;;;;;;;;;;9.40;99.90;;;;;;4992516;28;20038;-79
2020/12/20 06:20:01;;;;;;;9.30;3.53;;;9.40;99.90;;;;;;4990132;28;19916;-78
2020/12/20 06:22:30;;;;;;;12.70;3.58;;;9.40;99.90;;;;;;4984507;28;20038;-78
2020/12/20 06:25:06;;;;;;;8.20;3.70;;;9.40;99.90;;;;;;4992536;28;20031;-78
2020/12/20 06:27:34;;;;;;;8.77;3.08;;;9.40;99.90;;;;;;4989947;28;20089;-78
2020/12/20 06:30:03;;;;;;;15.25;4.03;;;9.30;99.90;;;;;;4975676;28;20479;-78
2020/12/20 06:33:03;;;;;;;12.57;4.05;;;9.30;99.90;;;;;;4990033;28;20084;-79
2020/12/20 06:35:30;;;;;;;15.75;3.70;;;9.30;99.90;;;;;;4982441;28;20030;-78
2020/12/20 06:37:57;;;;;;;13.65;4.72;;;9.30;99.90;;;;;;4993262;28;20030;-78
2020/12/20 06:40:29;;;;;;;15.60;4.80;;;9.30;99.90;;;;;;4996647;28;20041;-77
2020/12/20 06:42:56;;;;;;;18.60;3.63;;;9.30;99.90;;;;;;4990645;28;20642;-78
2020/12/20 06:45:23;;;;;;;12.32;3.83;;;9.30;99.90;;;;;;4995845;28;20026;-77
2020/12/20 06:47:51;;;;;;;19.58;3.90;;;9.20;99.90;;;;;;4995488;28;20022;-78
2020/12/20 06:50:38;;;;;;;14.18;3.40;;;9.30;99.90;;;;;;4994496;28;20039;-78
2020/12/20 06:53:05;;;;;;;10.65;3.40;;;9.20;99.90;;;;;;4989797;28;20387;-77
2020/12/20 06:55:31;;;;;;;9.55;3.45;;;9.20;99.90;;;;;;4985214;28;20034;-77
2020/12/20 06:58:02;;;;;;;9.20;3.45;;;9.20;99.90;;;;;;4987123;28;20039;-77
2020/12/20 07:00:40;;;;;;;11.80;3.45;;;9.20;99.90;;;;;;4976294;28;20038;-79
2020/12/20 07:03:06;;;;;;;15.00;3.88;;;9.20;99.90;;;;;;4984635;28;20026;-77
2020/12/20 07:06:10;;;;;;;15.30;4.18;;;9.30;99.90;;;;;;4988155;28;20398;-77
2020/12/20 07:08:37;;;;;;;10.57;3.58;;;9.20;99.90;;;;;;4989651;28;20065;-77
2020/12/20 07:11:22;;;;;;;8.98;3.50;;;9.20;99.90;;;;;;4985662;28;20035;-78
2020/12/20 07:13:51;;;;;;;7.53;3.08;;;9.10;99.90;;;;;;4993092;28;20069;-76
2020/12/20 07:16:19;;;;;;;22.15;4.28;;;9.10;99.90;;;;;;4981225;28;20062;-77
2020/12/20 07:18:55;;;;;;;;;;;9.10;99.90;;;;;;4988418;28;20042;-76
2020/12/20 07:21:24;;;;;;;23.50;3.75;;;9.10;99.90;;;;;;4991358;28;19996;-77
2020/12/20 07:23:52;;;;;;;10.18;4.43;;;9.10;99.90;;;;;;4997342;28;20030;-79
2020/12/20 07:26:19;;;;;;;11.40;3.75;;;9.00;99.90;;;;;;4996871;28;20458;-80
2020/12/20 07:28:44;;;;;;;15.52;4.10;;;9.00;99.90;;;;;;4989667;28;20030;-80
2020/12/20 07:31:15;;;;;;;17.60;3.88;;;9.00;99.90;;;;;;4995250;28;20030;-80
2020/12/20 07:33:42;;;;;;;13.43;4.32;;;9.10;99.90;;;;;;4995056;28;20023;-79
2020/12/20 07:36:08;;;;;;;17.67;3.55;;;9.00;99.90;;;;;;5010370;28;20031;-79
2020/12/20 07:38:34;;;;;;;15.27;3.65;;;9.10;99.90;;;;;;5010412;28;20025;-79
2020/12/20 07:40:59;;;;;;;16.05;4.40;;;9.00;99.90;;;;;;5013044;28;20030;-80
2020/12/20 07:43:25;;;;;;;18.15;4.75;;;9.10;99.90;;;;;;5013160;28;20060;-80
2020/12/20 07:46:05;;;;;;;16.65;3.88;;;9.00;99.90;;;;;;5016558;28;20032;-78
2020/12/20 07:48:31;;;;;;;12.18;3.25;;;9.00;99.90;;;;;;5013918;28;20061;-79
2020/12/20 07:51:17;;;;;;;18.55;3.25;;;9.10;99.90;;;;;;5005693;28;20034;-80
2020/12/20 07:53:55;;;;;;;14.85;4.28;;;9.00;99.90;;;;;;5007072;28;20027;-80
2020/12/20 07:56:21;;;;;;;;;;;9.00;99.90;;;;;;5005519;28;20030;-77
2020/12/20 07:58:47;;;;;;;16.63;3.92;;;9.00;99.90;;;;;;5003632;28;20023;-79
2020/12/20 08:01:13;;;;;;;17.70;4.68;;;9.00;99.90;;;;;;4996596;28;20030;-79
2020/12/20 08:03:39;;;;;;;13.90;3.80;;;9.00;99.90;;;;;;4998987;28;20069;-78
2020/12/20 08:06:15;;;;;;;13.35;3.50;;;9.00;99.90;;;;;;4999233;28;20093;-79
2020/12/20 08:08:43;;;;;;;19.67;4.63;;;9.10;99.90;;;;;;4997692;28;20495;-78
2020/12/20 08:11:22;;;;;;;18.10;3.92;;;9.10;99.90;;;;;;4988548;28;20101;-79
2020/12/20 08:13:56;;;;;;;27.90;4.25;;;9.10;99.90;;;;;;4983930;28;20019;-78
2020/12/20 08:16:34;;;;;;;19.35;4.20;;;9.00;99.90;;;;;;4995169;28;20046;-78
2020/12/20 08:19:15;;;;;;;17.00;3.65;;;9.00;99.90;;;;;;4986687;28;20077;-80
2020/12/20 08:21:52;;;;;;;10.30;4.63;;;9.10;99.90;;;;;;4988458;28;20431;-78
2020/12/20 08:24:20;;;;;;;17.55;4.00;;;9.00;99.90;;;;;;5000669;28;20121;-78
2020/12/20 08:26:46;;;;;;;13.93;4.38;;;9.10;99.90;;;;;;4998129;28;20030;-79
2020/12/20 08:29:13;;;;;;;10.98;3.92;;;9.10;99.90;;;;;;4997605;28;20085;-78
2020/12/20 08:31:40;;;;;;;21.13;4.28;;;9.10;99.90;;;;;;4997139;28;20077;-80
2020/12/20 08:34:23;;;;;;;12.50;4.35;;;9.20;99.90;;;;;;4984700;28;20031;-80
2020/12/20 08:36:53;;;;;;;22.38;3.83;;;9.20;99.90;;;;;;4986120;28;20030;-80
2020/12/20 08:39:25;;;;;;;14.10;4.60;;;9.20;99.90;;;;;;4983109;28;20113;-79
2020/12/20 08:42:02;;;;;;;12.50;3.33;;;9.20;99.90;;;;;;4995235;28;20546;-79
2020/12/20 08:44:28;;;;;;;12.40;3.60;;;9.20;99.90;;;;;;4994498;28;20542;-78
2020/12/20 08:47:05;;;;;;;23.67;4.45;;;9.20;99.90;;;;;;4990934;28;20081;-80
2020/12/20 08:49:30;;;;;;;16.00;4.40;;;9.20;99.90;;;;;;4995293;28;20390;-79
2020/12/20 08:52:07;;;;;;;10.73;4.63;;;9.20;99.90;;;;;;4991732;28;20038;-79
2020/12/20 08:54:33;;;;;;;20.08;4.30;;;9.20;99.90;;;;;;4978930;28;20030;-79
2020/12/20 08:57:00;;;;;;;10.05;3.75;;;9.20;99.90;;;;;;4982890;28;20026;-79
2020/12/20 08:59:34;;;;;;;13.80;4.60;;;9.20;99.90;;;;;;4986445;28;20054;-79
2020/12/20 09:02:01;;;;;;;17.17;3.83;;;9.30;99.90;;;;;;4993083;28;20033;-80
2020/12/20 09:04:32;;;;;;;9.18;3.38;;;9.30;99.90;;;;;;4984923;28;20043;-79
2020/12/20 09:07:06;;;;;;;19.50;4.55;;;9.30;99.90;;;;;;4984571;28;20555;-79
2020/12/20 09:09:32;;;;;;;15.45;4.60;;;9.30;99.90;;;;;;4991576;28;20057;-79
2020/12/20 09:12:19;;;;;;;22.95;4.13;;;9.40;99.90;;;;;;4977630;28;20029;-79
2020/12/20 09:15:02;;;;;;;17.08;4.55;;;9.30;99.90;;;;;;4979725;28;20014;-80
2020/12/20 09:17:40;;;;;;;17.33;3.70;;;9.30;99.90;;;;;;4984218;28;20033;-79
2020/12/20 09:20:08;;;;;;;15.57;4.78;;;9.30;99.90;;;;;;4992762;28;20035;-79
2020/12/20 09:22:47;;;;;;;17.73;4.25;;;9.30;99.90;;;;;;4993274;28;20076;-80
2020/12/20 09:25:34;;;;;;;12.68;3.80;;;9.30;99.90;;;;;;4988670;28;20042;-77
2020/12/20 09:28:18;;;;;;;20.77;4.00;;;9.40;99.90;;;;;;4984731;28;20458;-80
2020/12/20 09:30:49;;;;;;;11.85;3.78;;;9.40;99.90;;;;;;4990493;28;20066;-80
2020/12/20 09:33:20;;;;;;;16.20;4.07;;;9.50;99.90;;;;;;4984302;28;20423;-78
2020/12/20 09:36:05;;;;;;;15.27;4.20;;;9.50;99.90;;;;;;4977889;28;20043;-78
2020/12/20 09:38:39;;;;;;;24.63;4.22;;;9.50;99.90;;;;;;4983526;28;20092;-78
2020/12/20 09:41:08;;;;;;;17.95;3.92;;;9.50;99.90;;;;;;4975011;28;20026;-79
2020/12/20 09:43:34;;;;;;;16.85;4.43;;;9.60;99.90;;;;;;4994011;28;20109;-79
2020/12/20 09:46:01;;;;;;;17.92;4.20;;;9.70;99.90;;;;;;4992960;28;20074;-79
2020/12/20 09:48:28;;;;;;;17.88;4.50;;;9.60;99.90;;;;;;4987274;28;20030;-78
2020/12/20 09:50:54;;;;;;;17.08;4.28;;;9.70;99.90;;;;;;4988651;28;20148;-78
2020/12/20 09:53:19;;;;;;;15.20;3.40;;;9.70;99.90;;;;;;4987387;28;20022;-79
2020/12/20 09:55:45;;;;;;;17.20;3.85;;;9.70;99.90;;;;;;4993201;28;20066;-79
2020/12/20 09:58:12;;;;;;;21.17;4.18;;;9.80;99.90;;;;;;4998561;28;20019;-78
2020/12/20 10:00:39;;;;;;;11.13;3.67;;;9.90;99.90;;;;;;5005017;28;20053;-79
2020/12/20 10:03:06;;;;;;;17.40;5.53;;;9.90;99.90;;;;;;5006839;28;20533;-79
2020/12/20 10:05:33;;;;;;;8.02;2.35;;;10.00;99.90;;;;;;5001716;28;20038;-82
2020/12/20 10:07:59;;;;;;;14.10;4.80;;;10.00;99.90;;;;;;5012974;28;20042;-83
2020/12/20 10:10:25;;;;;;;19.38;4.70;;;10.00;99.90;;;;;;5015805;28;20040;-83
2020/12/20 10:12:51;;;;;;;17.02;4.47;;;10.20;99.90;;;;;;5013850;28;20034;-83
2020/12/20 10:15:17;;;;;;;14.63;3.45;;;10.30;99.90;;;;;;5019433;28;20038;-83
2020/12/20 10:17:43;;;;;;;23.67;4.47;;;10.60;99.90;;;;;;5015534;28;20025;-83
2020/12/20 10:20:09;;;;;;;23.85;4.60;;;10.70;99.90;;;;;;5018487;28;20023;-82
2020/12/20 10:22:35;;;;;;;21.00;4.47;;;10.70;99.90;;;;;;5005057;28;20603;-83
2020/12/20 10:25:01;;;;;;;15.90;3.90;;;10.80;99.90;;;;;;5000865;28;20070;-83
2020/12/20 10:27:26;;;;;;;21.75;4.05;;;10.80;99.90;;;;;;4991382;28;20041;-81
2020/12/20 10:29:52;;;;;;;17.83;4.65;;;10.80;99.90;;;;;;4997132;28;20051;-80
2020/12/20 10:32:18;;;;;;;15.00;4.30;;;10.90;99.90;;;;;;4997553;28;20042;-80
2020/12/20 10:34:43;;;;;;;15.25;4.20;;;10.80;99.90;;;;;;5001119;28;20463;-82
2020/12/20 10:37:09;;;;;;;14.25;4.70;;;10.80;99.90;;;;;;4995857;28;20070;-80
2020/12/20 10:39:34;;;;;;;20.77;4.60;;;10.80;99.90;;;;;;4987184;28;20041;-79
2020/12/20 10:42:00;;;;;;;23.98;5.30;;;10.80;99.90;;;;;;4986653;28;20029;-79
2020/12/20 10:44:26;;;;;;;29.13;4.72;;;10.90;99.90;;;;;;4993703;28;20521;-80
2020/12/20 10:46:52;;;;;;;21.73;4.80;;;10.90;99.90;;;;;;4998724;28;20025;-80
2020/12/20 10:49:19;;;;;;;24.35;6.10;;;10.90;99.90;;;;;;4995203;28;20031;-81
2020/12/20 10:51:50;;;;;;;18.05;4.90;;;11.00;99.90;;;;;;5001744;28;20034;-80
2020/12/20 10:54:15;;;;;;;16.02;5.30;;;11.00;99.90;;;;;;4994323;28;20023;-80
2020/12/20 10:56:42;;;;;;;12.73;4.72;;;11.00;99.90;;;;;;4993034;28;20019;-80
2020/12/20 10:59:08;;;;;;;22.77;5.25;;;10.90;99.90;;;;;;4996849;28;20458;-80
2020/12/20 11:01:33;;;;;;;17.05;5.35;;;10.80;99.90;;;;;;4983784;28;20030;-80
2020/12/20 11:03:59;;;;;;;18.25;4.75;;;10.90;99.90;;;;;;4994068;28;20065;-80
2020/12/20 11:06:25;;;;;;;17.17;5.25;;;10.90;99.90;;;;;;4992666;28;20073;-80
2020/12/20 11:08:51;;;;;;;18.33;4.70;;;10.90;99.90;;;;;;4994522;28;20041;-81
2020/12/20 11:11:18;;;;;;;11.00;5.28;;;10.90;99.90;;;;;;4991404;28;20034;-80
2020/12/20 11:13:44;;;;;;;25.27;5.20;;;10.90;99.90;;;;;;4993798;28;20014;-80
2020/12/20 11:16:17;;;;;;;17.77;4.50;;;10.90;99.90;;;;;;4993813;28;20399;-80
2020/12/20 11:18:45;;;;;;;19.85;5.80;;;10.90;99.90;;;;;;4987925;28;20030;-80
2020/12/20 11:21:16;;;;;;;15.80;5.13;;;11.00;99.90;;;;;;4988708;28;20026;-80
2020/12/20 11:23:44;;;;;;;23.55;6.78;;;10.90;99.90;;;;;;4982694;28;20039;-81
2020/12/20 11:26:21;;;;;;;28.52;6.75;;;10.90;99.90;;;;;;4991900;28;20022;-80
2020/12/20 11:28:49;;;;;;;25.85;6.63;;;11.00;99.90;;;;;;4979340;28;20038;-79
2020/12/20 11:31:16;;;;;;;;;;;11.10;99.90;;;;;;4994188;28;20035;-80
2020/12/20 11:33:43;;;;;;;21.87;6.77;;;11.20;99.90;;;;;;4994675;28;20402;-80
2020/12/20 11:36:09;;;;;;;19.60;6.63;;;11.10;99.90;;;;;;4996009;28;20280;-80
2020/12/20 11:38:35;;;;;;;28.27;6.45;;;11.10;99.90;;;;;;4978545;28;20030;-81
2020/12/20 11:41:04;;;;;;;16.10;6.97;;;11.10;99.90;;;;;;4991777;28;20084;-80
2020/12/20 11:43:31;;;;;;;21.45;6.90;;;11.00;99.90;;;;;;4989864;28;20037;-80
2020/12/20 11:45:57;;;;;;;18.92;7.65;;;11.10;99.90;;;;;;4993146;28;20039;-80
2020/12/20 11:48:23;;;;;;;23.20;7.88;;;11.00;99.90;;;;;;4982948;28;20065;-80
2020/12/20 11:50:48;;;;;;;16.38;7.30;;;11.00;99.90;;;;;;4988700;28;20033;-80
2020/12/20 11:53:14;;;;;;;31.58;9.30;;;11.10;99.90;;;;;;4986958;28;20422;-80
2020/12/20 11:55:41;;;;;;;19.10;8.00;;;11.10;99.90;;;;;;4980303;28;20026;-80
2020/12/20 11:58:13;;;;;;;26.55;8.57;;;11.10;99.90;;;;;;4994575;28;20046;-81
2020/12/20 12:00:47;;;;;;;21.63;8.65;;;11.10;99.90;;;;;;4989564;28;20478;-80
2020/12/20 12:03:14;;;;;;;31.13;8.82;;;11.10;99.90;;;;;;4993892;28;20026;-80
2020/12/20 12:05:42;;;;;;;20.75;8.55;;;11.00;99.90;;;;;;4995285;28;20031;-79
2020/12/20 12:08:08;;;;;;;19.05;8.70;;;11.00;99.90;;;;;;4994118;28;20030;-80
2020/12/20 12:10:35;;;;;;;14.80;8.18;;;11.00;99.90;;;;;;4989404;28;20041;-80
2020/12/20 12:13:01;;;;;;;23.35;9.23;;;11.10;99.90;;;;;;4993944;28;20032;-80
2020/12/20 12:15:28;;;;;;;23.02;8.73;;;11.00;99.90;;;;;;4994513;28;20054;-80
2020/12/20 12:17:53;;;;;;;23.63;8.90;;;10.90;99.90;;;;;;4996520;28;20054;-80
2020/12/20 12:20:19;;;;;;;32.75;9.32;;;11.00;99.90;;;;;;4980874;28;20058;-80
2020/12/20 12:22:46;;;;;;;26.02;10.25;;;11.00;99.90;;;;;;4994279;28;20450;-79
2020/12/20 12:25:13;;;;;;;20.73;8.55;;;11.10;99.90;;;;;;4989759;28;20090;-81
2020/12/20 12:27:39;;;;;;;26.88;9.93;;;11.00;99.90;;;;;;4991289;28;20487;-80
2020/12/20 12:30:04;;;;;;;23.65;9.00;;;11.00;99.90;;;;;;4995213;28;20069;-80
2020/12/20 12:32:30;;;;;;;14.45;7.88;;;10.90;99.90;;;;;;4997433;28;20014;-80
2020/12/20 12:34:56;;;;;;;27.52;9.60;;;10.80;99.90;;;;;;5000098;28;20034;-80
2020/12/20 12:37:22;;;;;;;20.05;8.57;;;10.90;99.90;;;;;;4998819;28;20073;-80
2020/12/20 12:39:48;;;;;;;24.42;8.40;;;10.80;99.90;;;;;;5012270;28;20041;-79
2020/12/20 12:42:14;;;;;;;14.50;7.55;;;10.80;99.90;;;;;;5011837;28;20015;-80
2020/12/20 12:44:42;;;;;;;27.63;8.05;;;10.80;99.90;;;;;;5011046;28;20037;-80
2020/12/20 12:47:08;;;;;;;;;;;10.70;99.90;;;;;;4995943;28;20507;-80
2020/12/20 12:49:34;;;;;;;20.85;9.07;;;10.80;99.90;;;;;;4998216;28;19909;-80
2020/12/20 12:52:00;;;;;;;21.60;7.10;;;10.80;99.90;;;;;;5000607;28;20049;-78
2020/12/20 12:54:25;;;;;;;26.13;7.47;;;10.80;99.90;;;;;;5000096;28;20034;-80